sensor_id;sensor_type;location;lat;lon;timestamp;pressure;altitude;pressure_sealevel;temperature;humidity
43804;BME280;29430;52.924;-2.388;2023-07-02T00:02:17;98612.00;;;13.11;69.61
43804;BME280;29430;52.924;-2.388;2023-07-02T00:07:11;98614.94;;;13.04;70.00
43804;BME280;29430;52.924;-2.388;2023-07-02T00:12:02;98616.19;;;12.91;70.65
43804;BME280;29430;52.924;-2.388;2023-07-02T00:16:54;98616.16;;;12.86;71.06
43804;BME280;29430;52.924;-2.388;2023-07-02T00:21:46;98612.31;;;12.82;71.53
43804;BME280;29430;52.924;-2.388;2023-07-02T00:26:39;98609.31;;;12.78;71.68
43804;BME280;29430;52.924;-2.388;2023-07-02T00:31:32;98605.19;;;12.76;71.77
43804;BME280;29430;52.924;-2.388;2023-07-02T00:36:25;98596.19;;;12.70;72.18
43804;BME280;29430;52.924;-2.388;2023-07-02T00:41:16;98600.75;;;12.64;72.00
43804;BME280;29430;52.924;-2.388;2023-07-02T00:46:10;98602.91;;;12.62;72.54
43804;BME280;29430;52.924;-2.388;2023-07-02T00:51:03;98602.03;;;12.57;72.71
43804;BME280;29430;52.924;-2.388;2023-07-02T00:55:55;98606.84;;;12.49;73.11
43804;BME280;29430;52.924;-2.388;2023-07-02T01:00:47;98607.88;;;12.43;73.67
43804;BME280;29430;52.924;-2.388;2023-07-02T01:05:39;98602.94;;;12.35;74.33
43804;BME280;29430;52.924;-2.388;2023-07-02T01:10:33;98609.38;;;12.29;74.82
43804;BME280;29430;52.924;-2.388;2023-07-02T01:15:27;98616.66;;;12.23;75.40
43804;BME280;29430;52.924;-2.388;2023-07-02T01:20:19;98620.41;;;12.17;76.73
43804;BME280;29430;52.924;-2.388;2023-07-02T01:25:11;98615.13;;;12.05;76.84
43804;BME280;29430;52.924;-2.388;2023-07-02T01:30:04;98622.19;;;12.06;77.66
43804;BME280;29430;52.924;-2.388;2023-07-02T01:34:56;98628.63;;;12.00;78.15
43804;BME280;29430;52.924;-2.388;2023-07-02T01:39:47;98627.19;;;11.92;78.33
43804;BME280;29430;52.924;-2.388;2023-07-02T01:44:39;98623.59;;;11.87;78.82
43804;BME280;29430;52.924;-2.388;2023-07-02T01:49:31;98634.38;;;11.81;78.98
43804;BME280;29430;52.924;-2.388;2023-07-02T01:54:25;98640.31;;;11.78;79.42
43804;BME280;29430;52.924;-2.388;2023-07-02T01:59:18;98641.00;;;11.69;79.29
43804;BME280;29430;52.924;-2.388;2023-07-02T02:04:11;98637.38;;;11.63;80.27
43804;BME280;29430;52.924;-2.388;2023-07-02T02:09:03;98636.81;;;11.61;80.62
43804;BME280;29430;52.924;-2.388;2023-07-02T02:13:56;98639.47;;;11.56;80.06
43804;BME280;29430;52.924;-2.388;2023-07-02T02:18:48;98639.41;;;11.51;80.74
43804;BME280;29430;52.924;-2.388;2023-07-02T02:23:43;98641.25;;;11.45;81.21
43804;BME280;29430;52.924;-2.388;2023-07-02T02:28:35;98651.69;;;11.36;82.10
43804;BME280;29430;52.924;-2.388;2023-07-02T02:33:28;98645.09;;;11.32;82.73
43804;BME280;29430;52.924;-2.388;2023-07-02T02:38:20;98642.09;;;11.28;82.65
43804;BME280;29430;52.924;-2.388;2023-07-02T02:43:11;98641.75;;;11.25;83.04
43804;BME280;29430;52.924;-2.388;2023-07-02T02:48:03;98641.91;;;11.18;84.03
43804;BME280;29430;52.924;-2.388;2023-07-02T02:52:55;98660.34;;;11.16;84.09
43804;BME280;29430;52.924;-2.388;2023-07-02T02:57:47;98656.72;;;11.10;83.72
43804;BME280;29430;52.924;-2.388;2023-07-02T03:02:39;98644.75;;;11.06;84.61
43804;BME280;29430;52.924;-2.388;2023-07-02T03:07:31;98652.88;;;11.06;83.97
43804;BME280;29430;52.924;-2.388;2023-07-02T03:12:23;98647.94;;;11.03;84.36
43804;BME280;29430;52.924;-2.388;2023-07-02T03:17:17;98649.44;;;10.94;85.16
43804;BME280;29430;52.924;-2.388;2023-07-02T03:22:09;98654.19;;;10.87;85.58
43804;BME280;29430;52.924;-2.388;2023-07-02T03:27:00;98654.34;;;10.80;85.34
43804;BME280;29430;52.924;-2.388;2023-07-02T03:31:52;98653.50;;;10.80;85.70
43804;BME280;29430;52.924;-2.388;2023-07-02T03:36:44;98655.66;;;10.78;86.29
43804;BME280;29430;52.924;-2.388;2023-07-02T03:41:36;98664.53;;;10.73;86.45
43804;BME280;29430;52.924;-2.388;2023-07-02T03:46:27;98669.16;;;10.72;86.41
43804;BME280;29430;52.924;-2.388;2023-07-02T03:51:19;98672.09;;;10.71;86.58
43804;BME280;29430;52.924;-2.388;2023-07-02T03:56:11;98661.13;;;10.66;86.66
43804;BME280;29430;52.924;-2.388;2023-07-02T04:01:02;98662.13;;;10.60;86.95
43804;BME280;29430;52.924;-2.388;2023-07-02T04:06:01;98664.25;;;10.57;86.27
43804;BME280;29430;52.924;-2.388;2023-07-02T04:10:53;98668.03;;;10.56;87.71
43804;BME280;29430;52.924;-2.388;2023-07-02T04:15:45;98661.22;;;10.54;88.49
43804;BME280;29430;52.924;-2.388;2023-07-02T04:20:36;98663.94;;;10.54;87.38
43804;BME280;29430;52.924;-2.388;2023-07-02T04:25:30;98661.56;;;10.57;87.73
43804;BME280;29430;52.924;-2.388;2023-07-02T04:30:42;98660.25;;;10.60;87.70
43804;BME280;29430;52.924;-2.388;2023-07-02T04:35:34;98671.19;;;10.65;88.65
43804;BME280;29430;52.924;-2.388;2023-07-02T04:40:26;98668.06;;;10.73;89.16
43804;BME280;29430;52.924;-2.388;2023-07-02T04:45:17;98656.81;;;10.99;88.81
43804;BME280;29430;52.924;-2.388;2023-07-02T04:50:10;98668.13;;;11.46;88.31
43804;BME280;29430;52.924;-2.388;2023-07-02T04:55:03;98656.56;;;11.95;86.33
43804;BME280;29430;52.924;-2.388;2023-07-02T04:59:55;98648.44;;;12.45;84.63
43804;BME280;29430;52.924;-2.388;2023-07-02T05:04:47;98659.44;;;12.87;82.42
43804;BME280;29430;52.924;-2.388;2023-07-02T05:09:39;98670.09;;;13.26;81.86
43804;BME280;29430;52.924;-2.388;2023-07-02T05:14:30;98663.91;;;13.79;80.43
43804;BME280;29430;52.924;-2.388;2023-07-02T05:19:22;98660.03;;;14.33;78.09
43804;BME280;29430;52.924;-2.388;2023-07-02T05:24:14;98658.25;;;14.80;75.35
43804;BME280;29430;52.924;-2.388;2023-07-02T05:29:05;98661.50;;;15.28;73.30
43804;BME280;29430;52.924;-2.388;2023-07-02T05:33:57;98667.19;;;15.68;71.26
43804;BME280;29430;52.924;-2.388;2023-07-02T05:38:49;98663.81;;;16.07;68.09
43804;BME280;29430;52.924;-2.388;2023-07-02T05:43:41;98670.25;;;16.32;67.08
43804;BME280;29430;52.924;-2.388;2023-07-02T05:48:33;98657.16;;;16.68;64.87
43804;BME280;29430;52.924;-2.388;2023-07-02T05:53:25;98656.25;;;17.17;64.34
43804;BME280;29430;52.924;-2.388;2023-07-02T05:58:16;98656.69;;;17.59;62.81
43804;BME280;29430;52.924;-2.388;2023-07-02T06:03:08;98667.06;;;17.38;61.87
43804;BME280;29430;52.924;-2.388;2023-07-02T06:08:00;98676.59;;;17.11;62.10
43804;BME280;29430;52.924;-2.388;2023-07-02T06:12:52;98683.34;;;16.90;63.30
43804;BME280;29430;52.924;-2.388;2023-07-02T06:17:43;98683.69;;;16.78;63.64
43804;BME280;29430;52.924;-2.388;2023-07-02T06:22:35;98691.59;;;16.79;63.29
43804;BME280;29430;52.924;-2.388;2023-07-02T06:27:27;98689.38;;;16.87;63.25
43804;BME280;29430;52.924;-2.388;2023-07-02T06:32:18;98686.09;;;16.85;62.94
43804;BME280;29430;52.924;-2.388;2023-07-02T06:37:10;98684.38;;;16.99;63.64
43804;BME280;29430;52.924;-2.388;2023-07-02T06:42:02;98683.53;;;17.62;60.97
43804;BME280;29430;52.924;-2.388;2023-07-02T06:46:54;98676.66;;;18.37;58.78
43804;BME280;29430;52.924;-2.388;2023-07-02T06:51:45;98686.44;;;18.87;57.40
43804;BME280;29430;52.924;-2.388;2023-07-02T06:56:37;98681.34;;;19.46;55.88
43804;BME280;29430;52.924;-2.388;2023-07-02T07:01:29;98685.41;;;20.09;53.47
43804;BME280;29430;52.924;-2.388;2023-07-02T07:06:20;98685.56;;;20.54;50.71
43804;BME280;29430;52.924;-2.388;2023-07-02T07:11:12;98697.28;;;20.74;50.98
43804;BME280;29430;52.924;-2.388;2023-07-02T07:16:04;98683.22;;;20.98;48.29
43804;BME280;29430;52.924;-2.388;2023-07-02T07:20:55;98692.72;;;20.42;49.00
43804;BME280;29430;52.924;-2.388;2023-07-02T07:25:47;98705.69;;;19.99;49.21
43804;BME280;29430;52.924;-2.388;2023-07-02T07:30:39;98708.13;;;19.87;49.31
43804;BME280;29430;52.924;-2.388;2023-07-02T07:35:31;98713.81;;;19.77;50.36
43804;BME280;29430;52.924;-2.388;2023-07-02T07:40:23;98714.56;;;19.96;50.61
43804;BME280;29430;52.924;-2.388;2023-07-02T07:45:14;98715.38;;;20.38;48.87
43804;BME280;29430;52.924;-2.388;2023-07-02T07:50:07;98714.78;;;20.92;48.27
43804;BME280;29430;52.924;-2.388;2023-07-02T07:55:02;98720.94;;;21.11;46.33
43804;BME280;29430;52.924;-2.388;2023-07-02T07:59:54;98720.44;;;21.09;46.14
43804;BME280;29430;52.924;-2.388;2023-07-02T08:04:46;98716.84;;;20.86;46.05
43804;BME280;29430;52.924;-2.388;2023-07-02T08:09:38;98716.25;;;20.75;46.73
43804;BME280;29430;52.924;-2.388;2023-07-02T08:14:29;98723.13;;;20.50;46.02
43804;BME280;29430;52.924;-2.388;2023-07-02T08:19:22;98717.13;;;20.20;46.71
43804;BME280;29430;52.924;-2.388;2023-07-02T08:24:16;98725.88;;;19.81;46.86
43804;BME280;29430;52.924;-2.388;2023-07-02T08:29:07;98728.63;;;19.48;48.47
43804;BME280;29430;52.924;-2.388;2023-07-02T08:33:59;98730.03;;;19.12;48.53
43804;BME280;29430;52.924;-2.388;2023-07-02T08:38:51;98725.53;;;18.78;47.98
43804;BME280;29430;52.924;-2.388;2023-07-02T08:43:43;98720.56;;;18.61;49.25
43804;BME280;29430;52.924;-2.388;2023-07-02T08:48:35;98717.94;;;18.51;49.62
43804;BME280;29430;52.924;-2.388;2023-07-02T08:53:27;98713.25;;;18.52;49.74
43804;BME280;29430;52.924;-2.388;2023-07-02T08:58:25;98724.41;;;18.60;50.76
43804;BME280;29430;52.924;-2.388;2023-07-02T09:03:16;98727.47;;;18.78;51.36
43804;BME280;29430;52.924;-2.388;2023-07-02T09:08:08;98726.44;;;19.12;50.45
43804;BME280;29430;52.924;-2.388;2023-07-02T09:13:04;98720.34;;;19.15;48.71
43804;BME280;29430;52.924;-2.388;2023-07-02T09:17:57;98721.63;;;19.04;47.96
43804;BME280;29430;52.924;-2.388;2023-07-02T09:22:54;98722.56;;;18.75;48.62
43804;BME280;29430;52.924;-2.388;2023-07-02T09:27:46;98731.53;;;18.61;49.51
43804;BME280;29430;52.924;-2.388;2023-07-02T09:32:39;98722.63;;;18.51;49.67
43804;BME280;29430;52.924;-2.388;2023-07-02T09:37:32;98713.16;;;18.38;50.46
43804;BME280;29430;52.924;-2.388;2023-07-02T09:42:28;98717.25;;;18.40;50.92
43804;BME280;29430;52.924;-2.388;2023-07-02T09:47:21;98710.31;;;18.67;50.43
43804;BME280;29430;52.924;-2.388;2023-07-02T09:52:15;98708.53;;;18.76;47.90
43804;BME280;29430;52.924;-2.388;2023-07-02T09:57:06;98714.56;;;18.78;47.86
43804;BME280;29430;52.924;-2.388;2023-07-02T10:01:59;98715.44;;;18.74;47.12
43804;BME280;29430;52.924;-2.388;2023-07-02T10:06:53;98710.47;;;18.76;48.06
43804;BME280;29430;52.924;-2.388;2023-07-02T10:11:45;98706.13;;;18.94;48.25
43804;BME280;29430;52.924;-2.388;2023-07-02T10:16:50;98707.44;;;19.48;46.96
43804;BME280;29430;52.924;-2.388;2023-07-02T10:21:42;98703.84;;;19.81;45.05
43804;BME280;29430;52.924;-2.388;2023-07-02T10:26:34;98700.38;;;19.89;44.01
43804;BME280;29430;52.924;-2.388;2023-07-02T10:31:26;98700.00;;;19.63;44.79
43804;BME280;29430;52.924;-2.388;2023-07-02T10:36:22;98706.31;;;19.49;45.11
43804;BME280;29430;52.924;-2.388;2023-07-02T10:41:29;98704.50;;;19.26;45.37
43804;BME280;29430;52.924;-2.388;2023-07-02T10:46:21;98707.97;;;18.99;45.94
43804;BME280;29430;52.924;-2.388;2023-07-02T10:51:13;98710.28;;;18.48;47.78
43804;BME280;29430;52.924;-2.388;2023-07-02T10:56:05;98701.75;;;18.31;49.28
43804;BME280;29430;52.924;-2.388;2023-07-02T11:00:56;98702.56;;;18.50;49.39
43804;BME280;29430;52.924;-2.388;2023-07-02T11:05:49;98691.25;;;18.95;48.68
43804;BME280;29430;52.924;-2.388;2023-07-02T11:10:43;98690.63;;;19.17;46.70
43804;BME280;29430;52.924;-2.388;2023-07-02T11:15:37;98690.63;;;19.17;46.71
43804;BME280;29430;52.924;-2.388;2023-07-02T11:20:33;98698.59;;;19.19;47.69
43804;BME280;29430;52.924;-2.388;2023-07-02T11:25:25;98688.84;;;19.07;48.20
43804;BME280;29430;52.924;-2.388;2023-07-02T11:30:17;98693.47;;;18.93;47.81
43804;BME280;29430;52.924;-2.388;2023-07-02T11:35:08;98687.78;;;18.89;48.15
43804;BME280;29430;52.924;-2.388;2023-07-02T11:40:00;98678.34;;;18.95;47.56
43804;BME280;29430;52.924;-2.388;2023-07-02T11:44:52;98674.91;;;19.04;46.15
43804;BME280;29430;52.924;-2.388;2023-07-02T11:49:43;98675.41;;;19.06;46.03
43804;BME280;29430;52.924;-2.388;2023-07-02T11:54:35;98670.75;;;19.06;45.44
43804;BME280;29430;52.924;-2.388;2023-07-02T11:59:27;98682.03;;;19.05;45.91
43804;BME280;29430;52.924;-2.388;2023-07-02T12:04:19;98677.94;;;19.02;45.42
43804;BME280;29430;52.924;-2.388;2023-07-02T12:09:10;98668.13;;;19.15;45.48
43804;BME280;29430;52.924;-2.388;2023-07-02T12:14:02;98670.53;;;19.36;45.79
43804;BME280;29430;52.924;-2.388;2023-07-02T12:18:54;98677.31;;;19.71;44.84
43804;BME280;29430;52.924;-2.388;2023-07-02T12:23:46;98679.47;;;19.74;44.29
43804;BME280;29430;52.924;-2.388;2023-07-02T12:28:37;98679.84;;;19.67;44.23
43804;BME280;29430;52.924;-2.388;2023-07-02T12:33:29;98695.38;;;19.44;44.44
43804;BME280;29430;52.924;-2.388;2023-07-02T12:38:21;98683.75;;;19.33;44.46
43804;BME280;29430;52.924;-2.388;2023-07-02T12:43:13;98672.88;;;19.42;46.28
43804;BME280;29430;52.924;-2.388;2023-07-02T12:48:05;98674.69;;;19.94;45.91
43804;BME280;29430;52.924;-2.388;2023-07-02T12:52:57;98665.19;;;20.42;44.83
43804;BME280;29430;52.924;-2.388;2023-07-02T12:57:48;98679.75;;;20.70;43.03
43804;BME280;29430;52.924;-2.388;2023-07-02T13:02:40;98683.31;;;20.70;42.72
43804;BME280;29430;52.924;-2.388;2023-07-02T13:07:52;98683.00;;;20.58;41.57
43804;BME280;29430;52.924;-2.388;2023-07-02T13:12:43;98682.84;;;20.41;41.39
43804;BME280;29430;52.924;-2.388;2023-07-02T13:17:35;98695.41;;;20.19;41.76
43804;BME280;29430;52.924;-2.388;2023-07-02T13:22:27;98699.38;;;19.85;42.58
43804;BME280;29430;52.924;-2.388;2023-07-02T13:27:20;98700.91;;;19.58;43.36
43804;BME280;29430;52.924;-2.388;2023-07-02T13:32:11;98699.66;;;19.37;44.35
43804;BME280;29430;52.924;-2.388;2023-07-02T13:37:03;98691.94;;;19.20;44.23
43804;BME280;29430;52.924;-2.388;2023-07-02T13:41:55;98668.66;;;19.17;45.17
43804;BME280;29430;52.924;-2.388;2023-07-02T13:46:47;98675.91;;;19.27;44.71
43804;BME280;29430;52.924;-2.388;2023-07-02T13:51:39;98677.47;;;19.47;44.49
43804;BME280;29430;52.924;-2.388;2023-07-02T13:56:31;98675.84;;;19.60;44.88
43804;BME280;29430;52.924;-2.388;2023-07-02T14:01:23;98676.53;;;19.84;43.45
43804;BME280;29430;52.924;-2.388;2023-07-02T14:06:15;98677.25;;;20.04;42.83
43804;BME280;29430;52.924;-2.388;2023-07-02T14:11:08;98664.84;;;20.07;42.74
43804;BME280;29430;52.924;-2.388;2023-07-02T14:16:04;98676.53;;;19.98;42.77
43804;BME280;29430;52.924;-2.388;2023-07-02T14:20:55;98671.16;;;19.93;43.63
43804;BME280;29430;52.924;-2.388;2023-07-02T14:25:47;98681.72;;;19.86;43.05
43804;BME280;29430;52.924;-2.388;2023-07-02T14:30:39;98670.47;;;19.68;43.47
43804;BME280;29430;52.924;-2.388;2023-07-02T14:35:30;98673.66;;;19.62;43.93
43804;BME280;29430;52.924;-2.388;2023-07-02T14:40:23;98672.50;;;19.63;44.25
43804;BME280;29430;52.924;-2.388;2023-07-02T14:45:15;98677.69;;;19.50;43.67
43804;BME280;29430;52.924;-2.388;2023-07-02T14:50:07;98681.53;;;19.36;43.86
43804;BME280;29430;52.924;-2.388;2023-07-02T14:54:59;98679.44;;;19.27;45.24
43804;BME280;29430;52.924;-2.388;2023-07-02T14:59:52;98674.25;;;19.26;44.59
43804;BME280;29430;52.924;-2.388;2023-07-02T15:04:44;98677.56;;;19.09;44.46
43804;BME280;29430;52.924;-2.388;2023-07-02T15:09:36;98677.75;;;18.99;44.06
43804;BME280;29430;52.924;-2.388;2023-07-02T15:14:28;98662.81;;;18.86;45.42
43804;BME280;29430;52.924;-2.388;2023-07-02T15:19:20;98655.91;;;18.88;45.45
43804;BME280;29430;52.924;-2.388;2023-07-02T15:24:15;98649.59;;;18.88;45.17
43804;BME280;29430;52.924;-2.388;2023-07-02T15:29:07;98640.03;;;18.85;45.32
43804;BME280;29430;52.924;-2.388;2023-07-02T15:33:59;98651.75;;;18.91;45.69
43804;BME280;29430;52.924;-2.388;2023-07-02T15:38:50;98646.31;;;18.86;44.80
43804;BME280;29430;52.924;-2.388;2023-07-02T15:43:44;98654.81;;;18.89;44.75
43804;BME280;29430;52.924;-2.388;2023-07-02T15:48:36;98642.22;;;18.83;46.41
43804;BME280;29430;52.924;-2.388;2023-07-02T15:53:27;98648.38;;;18.75;46.29
43804;BME280;29430;52.924;-2.388;2023-07-02T15:58:19;98646.78;;;18.74;46.72
43804;BME280;29430;52.924;-2.388;2023-07-02T16:03:11;98651.22;;;18.70;46.85
43804;BME280;29430;52.924;-2.388;2023-07-02T16:08:03;98650.03;;;18.57;48.08
43804;BME280;29430;52.924;-2.388;2023-07-02T16:12:55;98659.16;;;18.52;48.05
43804;BME280;29430;52.924;-2.388;2023-07-02T16:17:47;98649.81;;;18.53;48.51
43804;BME280;29430;52.924;-2.388;2023-07-02T16:22:39;98643.28;;;18.49;48.76
43804;BME280;29430;52.924;-2.388;2023-07-02T16:27:33;98641.34;;;18.50;49.07
43804;BME280;29430;52.924;-2.388;2023-07-02T16:32:25;98650.97;;;18.47;48.40
43804;BME280;29430;52.924;-2.388;2023-07-02T16:37:20;98659.22;;;18.28;49.19
43804;BME280;29430;52.924;-2.388;2023-07-02T16:42:12;98655.78;;;18.17;49.30
43804;BME280;29430;52.924;-2.388;2023-07-02T16:47:04;98647.03;;;18.15;49.52
43804;BME280;29430;52.924;-2.388;2023-07-02T16:51:56;98644.63;;;18.08;49.38
43804;BME280;29430;52.924;-2.388;2023-07-02T17:01:45;98649.50;;;17.93;51.02
43804;BME280;29430;52.924;-2.388;2023-07-02T17:06:38;98649.59;;;17.82;51.92
43804;BME280;29430;52.924;-2.388;2023-07-02T17:11:30;98650.72;;;17.81;53.17
43804;BME280;29430;52.924;-2.388;2023-07-02T17:16:21;98643.81;;;17.84;53.66
43804;BME280;29430;52.924;-2.388;2023-07-02T17:21:13;98646.03;;;17.82;53.78
43804;BME280;29430;52.924;-2.388;2023-07-02T17:26:05;98643.72;;;17.94;54.05
43804;BME280;29430;52.924;-2.388;2023-07-02T17:30:58;98652.63;;;17.81;53.88
43804;BME280;29430;52.924;-2.388;2023-07-02T17:35:51;98640.66;;;17.71;54.36
43804;BME280;29430;52.924;-2.388;2023-07-02T17:40:42;98649.53;;;17.63;54.45
43804;BME280;29430;52.924;-2.388;2023-07-02T17:45:34;98642.53;;;17.52;54.50
43804;BME280;29430;52.924;-2.388;2023-07-02T17:50:26;98637.03;;;17.52;55.18
43804;BME280;29430;52.924;-2.388;2023-07-02T17:55:17;98631.50;;;17.57;55.45
43804;BME280;29430;52.924;-2.388;2023-07-02T18:00:10;98631.22;;;17.59;54.92
43804;BME280;29430;52.924;-2.388;2023-07-02T18:05:01;98620.75;;;17.61;55.31
43804;BME280;29430;52.924;-2.388;2023-07-02T18:09:53;98609.84;;;17.56;55.35
43804;BME280;29430;52.924;-2.388;2023-07-02T18:14:46;98603.38;;;17.46;54.80
43804;BME280;29430;52.924;-2.388;2023-07-02T18:19:38;98617.53;;;17.29;54.83
43804;BME280;29430;52.924;-2.388;2023-07-02T18:24:31;98617.31;;;17.21;55.30
43804;BME280;29430;52.924;-2.388;2023-07-02T18:29:23;98617.97;;;17.12;55.07
43804;BME280;29430;52.924;-2.388;2023-07-02T18:34:15;98616.03;;;17.13;55.34
43804;BME280;29430;52.924;-2.388;2023-07-02T18:39:07;98619.91;;;17.12;55.25
43804;BME280;29430;52.924;-2.388;2023-07-02T18:44:00;98601.56;;;17.07;55.71
43804;BME280;29430;52.924;-2.388;2023-07-02T18:48:51;98608.50;;;16.99;55.95
43804;BME280;29430;52.924;-2.388;2023-07-02T18:53:43;98615.97;;;16.89;56.28
43804;BME280;29430;52.924;-2.388;2023-07-02T18:58:35;98607.81;;;16.78;57.08
43804;BME280;29430;52.924;-2.388;2023-07-02T19:03:27;98610.31;;;16.75;57.66
43804;BME280;29430;52.924;-2.388;2023-07-02T19:08:19;98608.72;;;16.69;58.31
43804;BME280;29430;52.924;-2.388;2023-07-02T19:13:13;98601.94;;;16.61;58.63
43804;BME280;29430;52.924;-2.388;2023-07-02T19:18:05;98605.53;;;16.56;58.50
43804;BME280;29430;52.924;-2.388;2023-07-02T19:22:58;98600.34;;;16.50;58.32
43804;BME280;29430;52.924;-2.388;2023-07-02T19:27:51;98600.97;;;16.41;58.01
43804;BME280;29430;52.924;-2.388;2023-07-02T19:32:42;98600.72;;;16.38;58.29
43804;BME280;29430;52.924;-2.388;2023-07-02T19:37:34;98601.28;;;16.35;59.11
43804;BME280;29430;52.924;-2.388;2023-07-02T19:42:26;98598.28;;;16.31;60.36
43804;BME280;29430;52.924;-2.388;2023-07-02T19:47:18;98604.06;;;16.24;61.14
43804;BME280;29430;52.924;-2.388;2023-07-02T19:52:14;98607.66;;;16.20;61.66
43804;BME280;29430;52.924;-2.388;2023-07-02T19:57:08;98605.19;;;16.18;61.96
43804;BME280;29430;52.924;-2.388;2023-07-02T20:02:04;98607.69;;;16.09;62.99
43804;BME280;29430;52.924;-2.388;2023-07-02T20:06:56;98622.50;;;16.08;63.05
43804;BME280;29430;52.924;-2.388;2023-07-02T20:11:49;98629.09;;;16.02;66.28
43804;BME280;29430;52.924;-2.388;2023-07-02T20:16:43;98614.41;;;15.83;67.80
43804;BME280;29430;52.924;-2.388;2023-07-02T20:21:35;98644.78;;;15.61;69.49
43804;BME280;29430;52.924;-2.388;2023-07-02T20:26:26;98650.28;;;15.45;72.47
43804;BME280;29430;52.924;-2.388;2023-07-02T20:31:18;98653.31;;;15.28;73.75
43804;BME280;29430;52.924;-2.388;2023-07-02T20:36:13;98660.97;;;15.21;75.88
43804;BME280;29430;52.924;-2.388;2023-07-02T20:41:04;98661.81;;;15.06;77.31
43804;BME280;29430;52.924;-2.388;2023-07-02T20:45:56;98665.63;;;14.90;78.66
43804;BME280;29430;52.924;-2.388;2023-07-02T20:50:49;98660.41;;;14.78;80.04
43804;BME280;29430;52.924;-2.388;2023-07-02T20:55:41;98651.13;;;14.63;81.98
43804;BME280;29430;52.924;-2.388;2023-07-02T21:00:32;98639.63;;;14.46;81.86
43804;BME280;29430;52.924;-2.388;2023-07-02T21:05:24;98641.22;;;14.37;83.17
43804;BME280;29430;52.924;-2.388;2023-07-02T21:10:16;98638.19;;;14.28;83.60
43804;BME280;29430;52.924;-2.388;2023-07-02T21:15:08;98645.53;;;14.22;84.19
43804;BME280;29430;52.924;-2.388;2023-07-02T21:20:00;98646.06;;;14.14;84.22
43804;BME280;29430;52.924;-2.388;2023-07-02T21:24:51;98647.94;;;14.08;84.64
43804;BME280;29430;52.924;-2.388;2023-07-02T21:29:43;98649.00;;;13.97;84.62
43804;BME280;29430;52.924;-2.388;2023-07-02T21:34:35;98649.53;;;13.89;84.58
43804;BME280;29430;52.924;-2.388;2023-07-02T21:39:27;98641.84;;;13.81;85.60
43804;BME280;29430;52.924;-2.388;2023-07-02T21:44:19;98650.25;;;13.69;85.83
43804;BME280;29430;52.924;-2.388;2023-07-02T21:49:10;98640.94;;;13.59;85.79
43804;BME280;29430;52.924;-2.388;2023-07-02T21:54:02;98649.63;;;13.56;86.31
43804;BME280;29430;52.924;-2.388;2023-07-02T21:58:54;98642.50;;;13.50;86.64
43804;BME280;29430;52.924;-2.388;2023-07-02T22:03:45;98665.13;;;13.51;87.25
43804;BME280;29430;52.924;-2.388;2023-07-02T22:08:37;98658.28;;;13.48;87.46
43804;BME280;29430;52.924;-2.388;2023-07-02T22:13:29;98649.03;;;13.49;88.11
43804;BME280;29430;52.924;-2.388;2023-07-02T22:18:21;98653.94;;;13.47;87.94
43804;BME280;29430;52.924;-2.388;2023-07-02T22:23:13;98651.16;;;13.42;88.58
43804;BME280;29430;52.924;-2.388;2023-07-02T22:28:04;98650.34;;;13.41;88.86
43804;BME280;29430;52.924;-2.388;2023-07-02T22:32:56;98646.75;;;13.36;89.63
43804;BME280;29430;52.924;-2.388;2023-07-02T22:37:48;98652.22;;;13.36;89.04
43804;BME280;29430;52.924;-2.388;2023-07-02T22:42:40;98654.66;;;13.37;89.71
43804;BME280;29430;52.924;-2.388;2023-07-02T22:47:32;98652.22;;;13.36;90.37
43804;BME280;29430;52.924;-2.388;2023-07-02T22:52:24;98659.56;;;13.35;89.60
43804;BME280;29430;52.924;-2.388;2023-07-02T22:57:16;98659.25;;;13.32;89.68
43804;BME280;29430;52.924;-2.388;2023-07-02T23:02:07;98656.72;;;13.25;90.01
43804;BME280;29430;52.924;-2.388;2023-07-02T23:06:59;98655.63;;;13.21;89.68
43804;BME280;29430;52.924;-2.388;2023-07-02T23:11:51;98656.72;;;13.20;89.23
43804;BME280;29430;52.924;-2.388;2023-07-02T23:16:42;98654.50;;;13.17;88.77
43804;BME280;29430;52.924;-2.388;2023-07-02T23:21:34;98644.91;;;13.09;88.51
43804;BME280;29430;52.924;-2.388;2023-07-02T23:26:26;98642.69;;;13.01;88.45
43804;BME280;29430;52.924;-2.388;2023-07-02T23:31:26;98639.34;;;12.94;88.99
43804;BME280;29430;52.924;-2.388;2023-07-02T23:36:19;98642.84;;;12.89;88.86
43804;BME280;29430;52.924;-2.388;2023-07-02T23:41:13;98640.41;;;12.87;88.61
43804;BME280;29430;52.924;-2.388;2023-07-02T23:46:05;98644.72;;;12.83;88.15
43804;BME280;29430;52.924;-2.388;2023-07-02T23:50:57;98647.69;;;12.82;88.62
43804;BME280;29430;52.924;-2.388;2023-07-02T23:55:48;98632.72;;;12.79;88.29
